Time;durP1;ratioP1;P1;durP2;ratioP2;P2;SDS_P1;SDS_P2;PMS_P1;PMS_P2;Temp;Humidity;BMP_temperature;BMP_pressure;BME280_temperature;BME280_humidity;BME280_pressure;Samples;Min_cycle;Max_cycle;Signal;HPM_P1;HPM_P2
2022/08/15 00:00:50;;;;;;;13.25;11.90;;;21.70;99.90;;;;;;4977680;28;20069;-90
2022/08/15 00:03:31;;;;;;;13.90;12.38;;;21.70;99.90;;;;;;4967528;28;20054;-88
2022/08/15 00:05:59;;;;;;;14.77;12.93;;;21.70;99.90;;;;;;4979172;28;20117;-90
2022/08/15 00:08:25;;;;;;;15.88;13.15;;;21.70;99.90;;;;;;4980610;28;20054;-90
2022/08/15 00:10:51;;;;;;;13.52;12.13;;;21.60;99.90;;;;;;4968503;28;20043;-86
2022/08/15 00:13:23;;;;;;;12.98;11.60;;;21.60;99.90;;;;;;4977007;28;20623;-87
2022/08/15 00:15:49;;;;;;;14.10;12.23;;;21.60;99.90;;;;;;4973492;28;20129;-88
2022/08/15 00:18:15;;;;;;;13.68;11.68;;;21.50;99.90;;;;;;4970406;28;20045;-93
2022/08/15 00:20:41;;;;;;;13.98;12.57;;;21.50;99.90;;;;;;4984222;28;20058;-91
2022/08/15 00:23:11;;;;;;;13.45;11.98;;;21.50;99.90;;;;;;4995015;28;20143;-89
2022/08/15 00:25:40;;;;;;;15.25;12.63;;;21.50;99.90;;;;;;4998044;28;20035;-88
2022/08/15 00:28:06;;;;;;;14.20;12.73;;;21.60;99.90;;;;;;4946434;28;20043;-89
2022/08/15 00:30:33;;;;;;;14.55;12.70;;;21.60;99.90;;;;;;4973892;28;20138;-90
2022/08/15 00:32:59;;;;;;;13.95;12.55;;;21.50;99.90;;;;;;4973640;28;20057;-89
2022/08/15 00:35:36;;;;;;;14.23;12.90;;;21.40;99.90;;;;;;4958094;28;20114;-89
2022/08/15 00:38:22;;;;;;;13.65;12.32;;;21.20;99.90;;;;;;4993350;28;20042;-87
2022/08/15 00:43:39;;;;;;;17.17;15.18;;;21.20;99.90;;;;;;4989295;28;20054;-88
2022/08/15 00:46:06;;;;;;;17.67;15.43;;;21.20;99.90;;;;;;4972908;28;20154;-89
2022/08/15 00:48:44;;;;;;;16.77;14.80;;;21.20;99.90;;;;;;4972649;28;20392;-87
2022/08/15 00:51:30;;;;;;;19.15;16.10;;;21.30;99.90;;;;;;4992188;28;20082;-87
2022/08/15 00:54:02;;;;;;;20.23;16.17;;;21.30;99.90;;;;;;4976121;28;20391;-87
2022/08/15 00:56:30;;;;;;;15.73;14.13;;;21.20;99.90;;;;;;4960700;28;20568;-87
2022/08/15 00:58:55;;;;;;;15.90;14.20;;;21.10;99.90;;;;;;4975821;28;20546;-87
2022/08/15 01:01:22;;;;;;;14.52;13.10;;;21.00;99.90;;;;;;4960046;28;20125;-87
2022/08/15 01:03:48;;;;;;;15.63;13.65;;;21.00;99.90;;;;;;4960076;28;20383;-87
2022/08/15 01:06:14;;;;;;;14.73;13.23;;;20.90;99.90;;;;;;4960527;28;20408;-87
2022/08/15 01:08:41;;;;;;;17.20;15.52;;;20.90;99.90;;;;;;4975935;28;20375;-89
2022/08/15 01:11:31;;;;;;;17.27;15.48;;;20.90;99.90;;;;;;4960756;28;20051;-87
2022/08/15 01:13:59;;;;;;;20.75;17.00;;;21.00;99.90;;;;;;4960857;28;20065;-87
2022/08/15 01:16:25;;;;;;;17.02;15.27;;;21.00;99.90;;;;;;4979544;28;20050;-87
2022/08/15 01:18:51;;;;;;;17.92;16.02;;;21.00;99.90;;;;;;4963999;28;20054;-87
2022/08/15 01:21:40;;;;;;;19.75;17.02;;;21.00;99.90;;;;;;4964484;28;20053;-89
2022/08/15 01:24:09;;;;;;;19.15;17.25;;;21.00;99.90;;;;;;4980844;28;20047;-87
2022/08/15 01:26:35;;;;;;;19.73;17.00;;;21.00;99.90;;;;;;4987552;28;20056;-87
2022/08/15 01:29:00;;;;;;;19.10;16.95;;;21.00;99.90;;;;;;4967505;28;20034;-90
2022/08/15 01:31:26;;;;;;;19.25;17.10;;;21.00;99.90;;;;;;5020131;28;20089;-93
2022/08/15 01:33:57;;;;;;;19.52;17.52;;;21.00;99.90;;;;;;4987159;28;20092;-88
2022/08/15 01:36:26;;;;;;;20.65;17.23;;;21.10;99.90;;;;;;4964886;28;20046;-89
2022/08/15 01:39:15;;;;;;;18.73;16.83;;;21.10;99.90;;;;;;4948922;28;20402;-90
2022/08/15 01:41:52;;;;;;;19.20;17.15;;;21.10;99.90;;;;;;4990806;28;20475;-89
2022/08/15 01:44:28;;;;;;;18.52;16.67;;;21.10;99.90;;;;;;4964140;28;20054;-87
2022/08/15 01:47:10;;;;;;;19.27;15.50;;;21.20;99.90;;;;;;4948738;28;20081;-88
2022/08/15 01:49:40;;;;;;;19.75;16.00;;;21.20;99.90;;;;;;4963858;28;20050;-87
2022/08/15 01:52:05;;;;;;;17.98;16.08;;;21.20;99.90;;;;;;4948375;28;20046;-87
2022/08/15 01:54:35;;;;;;;17.70;15.95;;;21.20;99.90;;;;;;4997894;28;20046;-88
2022/08/15 01:57:01;;;;;;;16.15;14.45;;;21.30;99.90;;;;;;4960612;28;20038;-90
2022/08/15 01:59:27;;;;;;;16.50;14.43;;;21.30;99.90;;;;;;4970796;28;20057;-90
2022/08/15 02:01:55;;;;;;;16.60;14.00;;;21.20;99.90;;;;;;5019914;28;20042;-90
2022/08/15 02:04:46;;;;;;;15.73;13.75;;;21.20;99.90;;;;;;5003083;28;20038;-89
2022/08/15 02:07:17;;;;;;;17.05;15.02;;;21.30;99.90;;;;;;5005152;28;20045;-88
2022/08/15 02:09:47;;;;;;;16.80;14.82;;;21.40;99.90;;;;;;4986915;28;20034;-88
2022/08/15 02:12:13;;;;;;;17.42;14.90;;;21.30;99.90;;;;;;4972630;28;20054;-87
2022/08/15 02:14:41;;;;;;;19.05;15.75;;;21.20;99.90;;;;;;4966127;28;20082;-88
2022/08/15 02:17:08;;;;;;;16.45;14.52;;;21.10;99.90;;;;;;4966483;28;20050;-88
2022/08/15 02:19:34;;;;;;;16.08;14.43;;;21.10;99.90;;;;;;4980897;28;20057;-87
2022/08/15 02:22:00;;;;;;;15.48;13.82;;;21.10;99.90;;;;;;4998508;28;20124;-87
2022/08/15 02:24:26;;;;;;;16.25;14.40;;;21.00;99.90;;;;;;4980637;28;20447;-88
2022/08/15 02:26:53;;;;;;;17.58;15.73;;;21.00;99.90;;;;;;4980292;28;20050;-86
2022/08/15 02:29:23;;;;;;;16.73;14.93;;;21.00;99.90;;;;;;4964279;28;20081;-87
2022/08/15 02:31:51;;;;;;;16.98;14.07;;;21.20;99.90;;;;;;4980038;28;20570;-88
2022/08/15 02:34:18;;;;;;;16.65;14.43;;;21.10;99.90;;;;;;4949053;28;20058;-88
2022/08/15 02:36:44;;;;;;;17.08;15.02;;;21.10;99.90;;;;;;4996957;28;20176;-88
2022/08/15 02:39:09;;;;;;;17.63;15.55;;;21.10;99.90;;;;;;4931758;28;20137;-87
2022/08/15 02:41:41;;;;;;;18.65;14.88;;;21.00;99.90;;;;;;4963124;28;20094;-88
2022/08/15 02:44:07;;;;;;;18.67;15.45;;;20.90;99.90;;;;;;4979252;28;20055;-86
2022/08/15 02:46:32;;;;;;;20.50;16.60;;;20.90;99.90;;;;;;4978999;28;20185;-89
2022/08/15 02:49:01;;;;;;;18.50;15.98;;;20.90;99.90;;;;;;4981615;28;20042;-88
2022/08/15 02:51:27;;;;;;;20.27;16.27;;;20.80;99.90;;;;;;5005686;28;20087;-89
2022/08/15 02:53:53;;;;;;;18.70;16.67;;;20.90;99.90;;;;;;4969500;28;20066;-89
2022/08/15 02:56:23;;;;;;;20.52;17.48;;;20.80;99.90;;;;;;5007922;28;20138;-88
2022/08/15 02:58:49;;;;;;;20.38;17.98;;;20.80;99.90;;;;;;4978460;28;20141;-87
2022/08/15 03:01:14;;;;;;;18.90;16.35;;;20.70;99.90;;;;;;4996224;28;20490;-89
2022/08/15 03:03:42;;;;;;;19.42;16.50;;;20.70;99.90;;;;;;4977965;28;20069;-87
2022/08/15 03:06:09;;;;;;;19.65;16.85;;;20.60;99.90;;;;;;4946650;28;20057;-86
2022/08/15 03:08:35;;;;;;;20.42;16.75;;;20.50;99.90;;;;;;4962172;28;20064;-89
2022/08/15 03:11:05;;;;;;;19.73;17.15;;;20.50;99.90;;;;;;4962582;28;20050;-88
2022/08/15 03:13:31;;;;;;;21.15;17.45;;;20.50;99.90;;;;;;4974230;28;20526;-86
2022/08/15 03:15:57;;;;;;;19.15;16.83;;;20.50;99.90;;;;;;4974420;28;20090;-86
2022/08/15 03:18:24;;;;;;;19.08;17.00;;;20.50;99.90;;;;;;4958769;28;20043;-87
2022/08/15 03:20:53;;;;;;;19.77;17.67;;;20.40;99.90;;;;;;4974434;28;20058;-87
2022/08/15 03:23:20;;;;;;;18.50;16.50;;;20.20;99.90;;;;;;4974757;28;20054;-85
2022/08/15 03:25:49;;;;;;;19.13;17.10;;;20.20;99.90;;;;;;4975833;28;20059;-86
2022/08/15 03:28:16;;;;;;;19.75;17.65;;;20.20;99.90;;;;;;4974592;28;20135;-86
2022/08/15 03:30:42;;;;;;;21.20;17.73;;;20.10;99.90;;;;;;4975364;28;20055;-86
2022/08/15 03:33:07;;;;;;;21.48;17.83;;;20.10;99.90;;;;;;4974994;28;20058;-87
2022/08/15 03:35:41;;;;;;;20.90;18.20;;;20.00;99.90;;;;;;4992554;28;20027;-91
2022/08/15 03:38:07;;;;;;;;;;;20.00;99.90;;;;;;4997690;28;20112;-88
2022/08/15 03:40:33;;;;;;;20.90;18.02;;;20.00;99.90;;;;;;4991147;28;19989;-86
2022/08/15 03:43:03;;;;;;;20.52;18.40;;;19.90;99.90;;;;;;4972683;28;20626;-88
2022/08/15 03:45:30;;;;;;;21.50;18.33;;;19.90;99.90;;;;;;4977870;28;20039;-86
2022/08/15 03:47:55;;;;;;;19.00;17.05;;;19.90;99.90;;;;;;4977475;28;20046;-86
2022/08/15 03:50:21;;;;;;;25.65;19.73;;;19.80;99.90;;;;;;4974815;28;20061;-87
2022/08/15 03:52:51;;;;;;;17.63;15.82;;;19.80;99.90;;;;;;4975866;28;20089;-86
2022/08/15 03:55:17;;;;;;;19.85;16.38;;;19.80;99.90;;;;;;4974285;28;20498;-85
2022/08/15 03:57:44;;;;;;;19.92;15.63;;;19.80;99.90;;;;;;4958165;28;20046;-87
2022/08/15 04:00:11;;;;;;;20.08;17.30;;;19.80;99.90;;;;;;4975737;28;20047;-86
2022/08/15 04:02:37;;;;;;;19.35;16.35;;;19.70;99.90;;;;;;4958008;28;20063;-87
2022/08/15 04:05:03;;;;;;;19.02;16.85;;;19.70;99.90;;;;;;4973692;28;20050;-87
2022/08/15 04:07:28;;;;;;;19.63;16.98;;;19.70;99.90;;;;;;4973514;28;20062;-87
2022/08/15 04:09:54;;;;;;;18.42;16.50;;;19.70;99.90;;;;;;4975120;28;20048;-86
2022/08/15 04:12:36;;;;;;;19.02;16.63;;;19.70;99.90;;;;;;4977246;28;20059;-86
2022/08/15 04:15:07;;;;;;;17.77;15.98;;;19.70;99.90;;;;;;4991316;28;20046;-89
2022/08/15 04:17:33;;;;;;;18.50;16.33;;;19.70;99.90;;;;;;4996960;28;20038;-88
2022/08/15 04:19:59;;;;;;;19.58;17.17;;;19.70;99.90;;;;;;4961222;28;20106;-87
2022/08/15 04:22:34;;;;;;;19.23;16.60;;;19.60;99.90;;;;;;4974647;28;20047;-86
2022/08/15 04:25:07;;;;;;;18.40;16.55;;;19.70;99.90;;;;;;4973251;28;20047;-87
2022/08/15 04:27:32;;;;;;;18.45;16.35;;;19.70;99.90;;;;;;4958308;28;20125;-86
2022/08/15 04:29:58;;;;;;;18.35;16.15;;;19.70;99.90;;;;;;4974448;28;20434;-88
2022/08/15 04:32:24;;;;;;;18.15;16.20;;;19.60;99.90;;;;;;4973867;28;20126;-87
2022/08/15 04:34:50;;;;;;;17.88;15.82;;;19.70;99.90;;;;;;4957671;28;20061;-88
2022/08/15 04:37:16;;;;;;;18.55;16.58;;;19.80;99.90;;;;;;4974250;28;20047;-86
2022/08/15 04:39:44;;;;;;;19.52;17.45;;;19.80;99.90;;;;;;4974499;28;20054;-87
2022/08/15 04:42:11;;;;;;;20.92;18.10;;;19.80;99.90;;;;;;4973337;28;20051;-87
2022/08/15 04:44:39;;;;;;;19.80;17.70;;;20.00;99.90;;;;;;4973726;28;20043;-87
2022/08/15 04:47:05;;;;;;;22.60;18.88;;;20.00;99.90;;;;;;4972995;28;20047;-88
2022/08/15 04:49:32;;;;;;;19.85;17.73;;;20.00;99.90;;;;;;4974250;28;20042;-87
2022/08/15 04:52:18;;;;;;;22.70;18.38;;;20.20;99.90;;;;;;4973213;28;20051;-86
2022/08/15 04:54:45;;;;;;;20.40;17.90;;;20.30;99.90;;;;;;4973383;28;20050;-87
2022/08/15 04:57:11;;;;;;;20.33;17.00;;;20.30;99.90;;;;;;4974437;28;20384;-87
2022/08/15 04:59:36;;;;;;;21.90;18.55;;;20.30;99.90;;;;;;4989745;28;20050;-87
2022/08/15 05:02:03;;;;;;;20.77;18.58;;;20.40;99.90;;;;;;4974303;28;20475;-86
2022/08/15 05:04:29;;;;;;;19.83;17.73;;;20.40;99.90;;;;;;4973372;28;20158;-88
2022/08/15 05:06:55;;;;;;;21.55;19.25;;;20.50;99.90;;;;;;4958411;28;20562;-86
2022/08/15 05:09:21;;;;;;;21.23;18.98;;;20.50;99.90;;;;;;4977146;28;20077;-87
2022/08/15 05:11:47;;;;;;;22.30;19.42;;;20.50;99.90;;;;;;4983194;28;20027;-89
2022/08/15 05:14:13;;;;;;;22.45;19.45;;;20.50;99.90;;;;;;5009824;28;20062;-88
2022/08/15 05:16:38;;;;;;;22.17;18.60;;;20.60;99.90;;;;;;4997162;28;20054;-88
2022/08/15 05:19:04;;;;;;;20.42;18.23;;;20.70;99.90;;;;;;5009202;28;20042;-87
2022/08/15 05:21:30;;;;;;;20.98;18.35;;;20.70;99.90;;;;;;4980921;28;20052;-87
2022/08/15 05:23:55;;;;;;;20.35;18.20;;;20.80;99.90;;;;;;4995149;28;20054;-87
2022/08/15 05:26:21;;;;;;;19.58;17.48;;;20.90;99.90;;;;;;4993862;28;20042;-86
2022/08/15 05:28:47;;;;;;;19.45;17.13;;;21.00;99.90;;;;;;4993445;28;20065;-87
2022/08/15 05:31:12;;;;;;;24.20;17.60;;;20.80;99.90;;;;;;4992768;28;20136;-86
2022/08/15 05:33:39;;;;;;;20.45;17.55;;;21.20;99.90;;;;;;4979289;28;20045;-87
2022/08/15 05:36:05;;;;;;;20.83;17.30;;;21.20;99.90;;;;;;4966442;28;20050;-83
2022/08/15 05:38:46;;;;;;;18.80;16.80;;;21.30;99.90;;;;;;5015531;28;20070;-86
2022/08/15 05:41:38;;;;;;;21.45;17.30;;;21.30;99.90;;;;;;4974942;28;20464;-87
2022/08/15 05:44:28;;;;;;;18.98;16.98;;;21.40;99.90;;;;;;4957232;28;20050;-86
2022/08/15 05:47:16;;;;;;;19.88;17.80;;;21.50;99.90;;;;;;4987479;28;20038;-88
2022/08/15 05:50:08;;;;;;;18.83;16.83;;;21.50;99.90;;;;;;5013888;28;20038;-88
2022/08/15 05:52:47;;;;;;;21.10;16.67;;;21.60;99.90;;;;;;4993868;28;20042;-88
2022/08/15 05:55:35;;;;;;;18.88;16.58;;;21.60;99.90;;;;;;4991130;28;20413;-87
2022/08/15 05:58:40;;;;;;;18.05;16.23;;;21.60;99.90;;;;;;4998999;28;20519;-87
2022/08/15 06:01:16;;;;;;;17.27;15.55;;;21.60;99.90;;;;;;4964665;28;20092;-88
2022/08/15 06:03:58;;;;;;;18.73;15.23;;;21.70;99.90;;;;;;4949195;28;20530;-88
2022/08/15 06:06:30;;;;;;;17.17;15.38;;;21.70;99.90;;;;;;4965431;28;20060;-88
2022/08/15 06:09:09;;;;;;;15.60;13.98;;;21.70;99.90;;;;;;4948147;28;20054;-87
2022/08/15 06:11:41;;;;;;;15.85;13.32;;;21.80;99.90;;;;;;4965322;28;20053;-87
2022/08/15 06:14:26;;;;;;;15.65;14.05;;;21.90;99.90;;;;;;4963038;28;20054;-87
2022/08/15 06:16:53;;;;;;;14.40;13.00;;;21.90;99.90;;;;;;4979640;28;20062;-88
2022/08/15 06:19:34;;;;;;;14.07;12.75;;;22.00;99.90;;;;;;4962846;28;20054;-87
2022/08/15 06:22:21;;;;;;;15.52;14.02;;;22.10;99.90;;;;;;4980629;28;20054;-87
2022/08/15 06:25:09;;;;;;;16.23;14.20;;;22.20;99.90;;;;;;4979410;28;20490;-87
2022/08/15 06:27:40;;;;;;;16.77;14.05;;;22.40;99.90;;;;;;4997043;28;20050;-87
2022/08/15 06:30:25;;;;;;;15.85;14.35;;;22.50;99.90;;;;;;4979145;28;20046;-87
2022/08/15 06:33:12;;;;;;;16.15;14.55;;;22.60;99.90;;;;;;4949428;28;20109;-88
2022/08/15 06:35:59;;;;;;;17.35;15.07;;;22.70;99.90;;;;;;4978932;28;20468;-87
2022/08/15 06:38:31;;;;;;;18.17;15.93;;;22.80;99.90;;;;;;4988352;28;20055;-87
2022/08/15 06:41:03;;;;;;;17.65;15.85;;;23.00;99.90;;;;;;4978943;28;20061;-87
2022/08/15 06:43:29;;;;;;;17.93;14.97;;;23.20;99.90;;;;;;4978935;28;20061;-87
2022/08/15 06:45:55;;;;;;;16.98;15.27;;;23.70;99.90;;;;;;4996153;28;20046;-87
2022/08/15 06:48:24;;;;;;;16.48;14.65;;;23.90;99.90;;;;;;4982230;28;20042;-88
2022/08/15 06:50:55;;;;;;;16.45;14.85;;;24.00;99.90;;;;;;4986059;28;20027;-89
2022/08/15 06:53:32;;;;;;;17.02;15.23;;;24.00;99.90;;;;;;4983595;28;20049;-87
2022/08/15 06:56:22;;;;;;;16.40;14.73;;;23.90;99.90;;;;;;4994986;28;20050;-88
2022/08/15 06:58:52;;;;;;;17.42;14.35;;;23.70;99.90;;;;;;4983250;28;20081;-87
2022/08/15 07:01:39;;;;;;;16.25;14.35;;;23.60;99.90;;;;;;4977841;28;20043;-85
2022/08/15 07:04:50;;;;;;;17.08;14.98;;;23.80;99.90;;;;;;4985588;28;20042;-89
2022/08/15 07:08:03;;;;;;;17.80;15.55;;;23.80;99.90;;;;;;4978168;28;20050;-86
2022/08/15 07:10:52;;;;;;;17.10;15.35;;;23.90;99.90;;;;;;4922017;29;20087;-87
2022/08/15 07:13:21;;;;;;;17.08;15.40;;;24.10;99.90;;;;;;4921362;29;20067;-88
2022/08/15 07:16:01;;;;;;;18.05;16.27;;;24.20;99.90;;;;;;4955645;28;20565;-88
2022/08/15 07:18:45;;;;;;;17.17;15.43;;;24.10;99.90;;;;;;4963833;28;20059;-87
2022/08/15 07:21:18;;;;;;;17.75;15.95;;;24.20;99.90;;;;;;4973808;28;20486;-87
2022/08/15 07:24:11;;;;;;;17.60;15.82;;;24.00;99.90;;;;;;4975010;28;20042;-89
2022/08/15 07:26:51;;;;;;;17.45;15.65;;;24.00;99.90;;;;;;4994394;28;20050;-91
2022/08/15 07:29:38;;;;;;;18.70;16.10;;;24.10;99.90;;;;;;4963138;28;20046;-88
2022/08/15 07:32:34;;;;;;;18.30;16.13;;;24.20;99.90;;;;;;4976889;28;20490;-89
2022/08/15 07:35:16;;;;;;;17.50;15.77;;;24.20;99.90;;;;;;4959547;28;20081;-90
2022/08/15 07:37:55;;;;;;;19.15;16.00;;;24.40;99.90;;;;;;4977612;28;20046;-88
2022/08/15 07:40:38;;;;;;;19.45;15.90;;;24.40;99.90;;;;;;4977279;28;20054;-90
2022/08/15 07:43:22;;;;;;;16.48;14.30;;;24.50;99.90;;;;;;4962060;28;20046;-89
2022/08/15 07:45:47;;;;;;;15.77;13.98;;;24.70;99.90;;;;;;4970376;28;20039;-88
2022/08/15 07:48:21;;;;;;;14.48;12.85;;;24.90;99.90;;;;;;4961448;28;20050;-90
2022/08/15 07:51:05;;;;;;;14.55;12.95;;;25.00;99.90;;;;;;4977196;28;20053;-89
2022/08/15 07:53:31;;;;;;;14.25;12.27;;;25.00;99.90;;;;;;4944314;28;20104;-86
2022/08/15 07:56:04;;;;;;;14.35;12.50;;;25.40;99.90;;;;;;4977551;28;20081;-89
2022/08/15 07:58:31;;;;;;;13.75;12.35;;;25.90;99.90;;;;;;5006563;28;20137;-91
2022/08/15 08:01:27;;;;;;;12.70;11.40;;;26.30;99.90;;;;;;4961708;28;20042;-90
2022/08/15 08:03:59;;;;;;;13.90;11.65;;;26.50;99.90;;;;;;4977286;28;20050;-89
2022/08/15 08:06:45;;;;;;;13.63;11.70;;;26.60;99.90;;;;;;4976073;28;20046;-88
2022/08/15 08:09:21;;;;;;;13.73;11.52;;;26.60;99.90;;;;;;4960751;28;20490;-90
2022/08/15 08:11:54;;;;;;;11.57;10.38;;;26.90;99.90;;;;;;4977037;28;20165;-90
2022/08/15 08:14:35;;;;;;;11.95;10.75;;;27.00;99.90;;;;;;4961653;28;20054;-91
2022/08/15 08:17:15;;;;;;;13.18;10.65;;;27.00;99.90;;;;;;4960065;28;20059;-91
2022/08/15 08:20:06;;;;;;;12.48;10.00;;;27.20;99.90;;;;;;4976239;28;20499;-91
2022/08/15 08:23:04;;;;;;;10.80;9.73;;;27.70;99.90;;;;;;4978859;28;20047;-90
2022/08/15 08:25:39;;;;;;;11.00;8.57;;;27.60;99.90;;;;;;4980299;28;20055;-89
2022/08/15 08:28:09;;;;;;;9.68;8.73;;;27.50;99.90;;;;;;4988373;28;20043;-91
2022/08/15 08:31:11;;;;;;;10.10;8.40;;;27.40;99.90;;;;;;4986133;28;20043;-91
2022/08/15 08:33:37;;;;;;;9.55;8.55;;;27.50;99.90;;;;;;4955716;28;20605;-90
2022/08/15 08:36:27;;;;;;;10.15;7.93;;;27.60;99.90;;;;;;4961727;28;20066;-90
2022/08/15 08:39:29;;;;;;;8.35;7.55;;;28.10;99.90;;;;;;4963575;28;20081;-92
2022/08/15 08:42:26;;;;;;;7.80;7.07;;;28.80;99.80;;;;;;4940138;28;20491;-89
2022/08/15 08:45:13;;;;;;;10.90;8.15;;;29.50;99.90;;;;;;4939768;28;20110;-91
2022/08/15 08:47:42;;;;;;;9.32;8.48;;;29.60;98.70;;;;;;4967516;28;20058;-88
2022/08/15 08:50:21;;;;;;;10.73;8.95;;;29.80;98.60;;;;;;4995284;28;20712;-94
2022/08/15 08:53:05;;;;;;;8.75;7.93;;;29.70;98.70;;;;;;4951223;28;20051;-92
2022/08/15 08:55:51;;;;;;;9.35;8.32;;;29.60;98.70;;;;;;4957739;29;20105;-89
2022/08/15 08:58:40;;;;;;;9.20;8.30;;;29.90;98.90;;;;;;4953959;29;20051;-88
2022/08/15 09:01:07;;;;;;;9.38;8.48;;;30.50;98.30;;;;;;4954019;29;20051;-90
2022/08/15 09:03:39;;;;;;;9.13;8.23;;;30.20;98.20;;;;;;4954111;28;20051;-88
2022/08/15 09:06:05;;;;;;;8.52;7.72;;;30.00;97.90;;;;;;4954857;29;20051;-88
2022/08/15 09:08:34;;;;;;;8.32;7.63;;;30.00;97.70;;;;;;4958093;29;20050;-89
2022/08/15 09:11:22;;;;;;;10.57;7.85;;;29.70;98.80;;;;;;4953099;28;20142;-89
2022/08/15 09:13:48;;;;;;;9.48;7.28;;;30.70;97.70;;;;;;4960213;28;20047;-90
2022/08/15 09:16:26;;;;;;;10.45;7.60;;;31.10;96.80;;;;;;5000666;28;20061;-93
2022/08/15 09:19:04;;;;;;;9.35;7.28;;;31.60;96.70;;;;;;4984996;28;20044;-92
2022/08/15 09:21:33;;;;;;;8.82;7.85;;;31.90;97.00;;;;;;4980842;28;20063;-92
2022/08/15 09:23:59;;;;;;;9.32;8.27;;;32.00;97.00;;;;;;4957432;28;20158;-90
2022/08/15 09:26:33;;;;;;;8.15;7.40;;;32.60;97.20;;;;;;4957126;28;21099;-89
2022/08/15 09:29:29;;;;;;;9.30;7.45;;;32.50;95.30;;;;;;4959522;28;20058;-90
2022/08/15 09:32:16;;;;;;;8.38;7.32;;;32.80;95.60;;;;;;4963052;28;20054;-91
2022/08/15 09:34:50;;;;;;;7.82;7.03;;;32.90;95.40;;;;;;4986977;28;20070;-91
2022/08/15 09:37:34;;;;;;;7.72;7.03;;;32.70;96.20;;;;;;4998301;28;20035;-90
2022/08/15 09:40:25;;;;;;;7.40;6.70;;;32.30;95.60;;;;;;4994408;28;20035;-90
2022/08/15 09:43:12;;;;;;;7.22;6.40;;;33.00;95.40;;;;;;4999512;28;20026;-90
2022/08/15 09:45:54;;;;;;;7.45;6.63;;;33.20;95.10;;;;;;4999869;28;20090;-91
2022/08/15 09:48:58;;;;;;;7.13;6.35;;;34.10;94.80;;;;;;5016031;28;20104;-92
2022/08/15 09:51:48;;;;;;;7.40;6.22;;;34.50;93.40;;;;;;4979175;28;20051;-94
2022/08/15 09:54:24;;;;;;;7.03;6.38;;;34.40;93.70;;;;;;4998842;28;20050;-93
2022/08/15 09:57:19;;;;;;;7.30;6.50;;;32.90;94.20;;;;;;4981379;28;20055;-93
2022/08/15 09:59:49;;;;;;;7.30;6.60;;;31.80;94.20;;;;;;4982913;28;20118;-91
2022/08/15 10:02:20;;;;;;;9.88;6.80;;;31.70;94.90;;;;;;4969374;28;20082;-92
2022/08/15 10:04:49;;;;;;;8.68;6.43;;;31.40;95.10;;;;;;4999362;28;20060;-89
2022/08/15 10:07:15;;;;;;;6.82;5.97;;;31.30;95.40;;;;;;4998133;28;20066;-93
2022/08/15 10:10:00;;;;;;;7.70;6.88;;;31.20;95.00;;;;;;4979661;28;20047;-91
2022/08/15 10:12:25;;;;;;;6.78;6.18;;;31.20;94.70;;;;;;4977039;28;20089;-95
2022/08/15 10:15:04;;;;;;;6.65;6.10;;;31.40;94.80;;;;;;4971648;28;20059;-93
2022/08/15 10:17:33;;;;;;;7.22;6.63;;;32.10;93.40;;;;;;4981024;28;20061;-92
2022/08/15 10:20:19;;;;;;;7.00;6.40;;;31.80;93.70;;;;;;4981364;28;20051;-94
2022/08/15 10:22:57;;;;;;;7.38;6.65;;;31.70;94.10;;;;;;4957348;28;20055;-93
2022/08/15 10:25:22;;;;;;;7.20;6.50;;;31.80;94.10;;;;;;4961190;28;20042;-93
2022/08/15 10:28:08;;;;;;;8.50;7.68;;;31.70;94.10;;;;;;4979475;28;20050;-95
2022/08/15 10:30:46;;;;;;;8.00;7.20;;;31.60;94.10;;;;;;4979521;28;20047;-90
2022/08/15 10:33:24;;;;;;;8.00;7.30;;;31.90;94.20;;;;;;4989625;28;20050;-94
2022/08/15 10:35:51;;;;;;;8.75;7.90;;;31.90;94.80;;;;;;4978141;28;20038;-90
2022/08/15 10:38:25;;;;;;;8.15;7.43;;;31.60;95.20;;;;;;4976453;28;20105;-89
2022/08/15 10:41:03;;;;;;;9.00;8.20;;;31.60;95.50;;;;;;4975653;28;20054;-89
2022/08/15 10:43:40;;;;;;;8.60;7.70;;;31.00;95.90;;;;;;4992175;28;20050;-90
2022/08/15 10:46:19;;;;;;;13.35;9.95;;;30.80;96.40;;;;;;4976740;28;20050;-87
2022/08/15 10:49:13;;;;;;;11.90;9.90;;;30.50;97.10;;;;;;4974664;28;20061;-88
2022/08/15 10:51:57;;;;;;;13.90;10.10;;;30.10;97.70;;;;;;4993286;28;20078;-90
2022/08/15 10:54:59;;;;;;;11.70;10.05;;;29.40;98.00;;;;;;4977377;28;20110;-91
2022/08/15 10:57:26;;;;;;;11.93;10.75;;;29.50;98.40;;;;;;4975766;28;20051;-91
2022/08/15 10:59:54;;;;;;;12.15;10.95;;;29.30;98.30;;;;;;4976424;28;20053;-89
2022/08/15 11:02:41;;;;;;;12.75;11.30;;;29.10;98.50;;;;;;4960811;28;20082;-90
2022/08/15 11:05:12;;;;;;;13.60;11.63;;;28.90;98.80;;;;;;4975893;28;20053;-87
2022/08/15 11:07:40;;;;;;;15.50;12.98;;;28.50;99.20;;;;;;4976107;28;20062;-84
2022/08/15 11:10:12;;;;;;;16.20;12.70;;;28.10;99.40;;;;;;4996415;28;20027;-87
2022/08/15 11:12:42;;;;;;;14.27;12.90;;;28.00;99.70;;;;;;4992868;28;20523;-90
2022/08/15 11:15:22;;;;;;;14.57;12.20;;;27.90;99.90;;;;;;4977141;28;20398;-87
2022/08/15 11:18:04;;;;;;;14.32;12.85;;;27.90;99.90;;;;;;4976969;28;20058;-89
2022/08/15 11:21:18;;;;;;;14.45;13.05;;;27.90;99.90;;;;;;4966692;28;20053;-87
2022/08/15 11:23:51;;;;;;;15.38;12.80;;;28.00;99.90;;;;;;4963720;28;20058;-87
2022/08/15 11:26:22;;;;;;;14.95;12.85;;;28.20;99.90;;;;;;4974697;28;20396;-87
2022/08/15 11:28:48;;;;;;;14.25;12.95;;;28.10;99.90;;;;;;4946338;28;20097;-90
2022/08/15 11:31:18;;;;;;;14.98;12.98;;;28.50;99.90;;;;;;4976989;28;20042;-88
2022/08/15 11:33:47;;;;;;;14.85;12.60;;;28.80;99.90;;;;;;4994570;28;20060;-88
2022/08/15 11:36:21;;;;;;;13.98;12.48;;;28.80;99.80;;;;;;4975888;28;20058;-88
2022/08/15 11:38:58;;;;;;;13.95;12.55;;;28.70;99.30;;;;;;4976477;28;20093;-89
2022/08/15 11:41:27;;;;;;;15.25;13.05;;;28.70;99.70;;;;;;4977553;28;20065;-89
2022/08/15 11:43:54;;;;;;;14.32;12.82;;;28.60;99.60;;;;;;4983590;28;20049;-89
2022/08/15 11:46:20;;;;;;;13.05;11.77;;;28.60;99.70;;;;;;5010463;28;20030;-89
2022/08/15 11:48:53;;;;;;;12.85;11.55;;;28.40;99.60;;;;;;4989422;28;20050;-90
2022/08/15 11:51:22;;;;;;;14.10;12.60;;;28.50;99.80;;;;;;4962000;28;20049;-89
2022/08/15 11:54:11;;;;;;;14.55;13.13;;;28.50;99.50;;;;;;4992816;28;20050;-90
2022/08/15 11:57:00;;;;;;;14.80;12.98;;;28.40;99.80;;;;;;5009314;28;20089;-89
2022/08/15 11:59:37;;;;;;;14.80;13.15;;;28.20;99.90;;;;;;4977331;28;20101;-91
2022/08/15 12:02:05;;;;;;;14.82;13.25;;;28.10;99.90;;;;;;4962394;28;20557;-89
2022/08/15 12:04:33;;;;;;;15.23;13.57;;;28.10;99.90;;;;;;4975371;28;20042;-88
2022/08/15 12:07:06;;;;;;;14.45;12.95;;;28.50;99.90;;;;;;4959884;28;20081;-89
2022/08/15 12:09:32;;;;;;;15.25;12.70;;;28.20;99.90;;;;;;4976740;28;20057;-90
2022/08/15 12:11:58;;;;;;;12.68;11.38;;;28.40;99.90;;;;;;4962670;28;20046;-89
2022/08/15 12:14:25;;;;;;;13.27;11.98;;;28.60;99.50;;;;;;4958717;28;20063;-88
2022/08/15 12:16:55;;;;;;;11.80;10.77;;;28.70;99.30;;;;;;4971717;28;20047;-89
2022/08/15 12:19:46;;;;;;;11.20;10.10;;;28.90;99.00;;;;;;4971586;28;20142;-89
2022/08/15 12:22:24;;;;;;;10.88;9.75;;;29.00;98.60;;;;;;4972567;28;20082;-86
2022/08/15 12:24:50;;;;;;;11.35;9.95;;;29.20;98.30;;;;;;4954965;28;20399;-87
2022/08/15 12:27:16;;;;;;;13.20;10.60;;;29.20;98.30;;;;;;4972528;28;20051;-90
2022/08/15 12:29:42;;;;;;;10.20;9.13;;;29.50;98.80;;;;;;4983774;28;20463;-89
2022/08/15 12:32:09;;;;;;;10.50;9.55;;;29.20;98.30;;;;;;4988063;28;20050;-87
2022/08/15 12:34:36;;;;;;;10.18;9.20;;;29.10;97.60;;;;;;4993982;28;20051;-87
2022/08/15 12:37:07;;;;;;;10.18;9.15;;;29.30;97.80;;;;;;4979641;28;20042;-87
2022/08/15 12:39:46;;;;;;;10.27;9.30;;;29.40;98.20;;;;;;4964443;28;20055;-86
2022/08/15 12:42:15;;;;;;;10.80;9.80;;;29.20;98.20;;;;;;4936410;29;20138;-86
2022/08/15 12:44:41;;;;;;;11.10;10.00;;;29.00;98.30;;;;;;4953714;29;20055;-86
2022/08/15 12:47:07;;;;;;;10.98;9.88;;;29.00;98.30;;;;;;4952252;29;20087;-86
2022/08/15 12:49:32;;;;;;;12.98;11.55;;;28.70;98.90;;;;;;4935387;29;20047;-85
2022/08/15 12:51:58;;;;;;;13.63;12.20;;;28.50;99.90;;;;;;4951835;28;20047;-87
2022/08/15 12:54:24;;;;;;;12.88;11.57;;;28.70;99.90;;;;;;4941852;28;20042;-87
2022/08/15 12:56:50;;;;;;;13.60;12.40;;;28.80;99.90;;;;;;4963357;28;20050;-86
2022/08/15 12:59:15;;;;;;;14.05;12.55;;;28.70;99.90;;;;;;4964343;28;20046;-87
2022/08/15 13:01:42;;;;;;;13.02;11.70;;;29.00;99.90;;;;;;4962707;28;20071;-87
2022/08/15 13:04:10;;;;;;;13.32;11.85;;;28.90;99.90;;;;;;4960886;28;20054;-87
2022/08/15 13:06:45;;;;;;;13.43;12.02;;;28.90;99.90;;;;;;4961410;28;20046;-87